Time;durP1;ratioP1;P1;durP2;ratioP2;P2;SDS_P1;SDS_P2;PMS_P1;PMS_P2;Temp;Humidity;BMP_temperature;BMP_pressure;BME280_temperature;BME280_humidity;BME280_pressure;Samples;Min_cycle;Max_cycle;Signal;HPM_P1;HPM_P2
2022/05/13 00:00:47;;;;;;;9.37;6.83;;;12.00;99.90;;;;;;5053831;28;20178;-66
2022/05/13 00:03:13;;;;;;;10.87;6.80;;;12.00;99.90;;;;;;5053572;28;20652;-68
2022/05/13 00:05:38;;;;;;;7.80;7.03;;;12.00;99.90;;;;;;5053503;28;20205;-67
2022/05/13 00:08:04;;;;;;;8.03;7.20;;;11.90;99.90;;;;;;5053715;28;20253;-67
2022/05/13 00:10:30;;;;;;;7.33;6.80;;;11.90;99.90;;;;;;5053818;28;20621;-67
2022/05/13 00:12:56;;;;;;;8.27;7.47;;;11.90;99.90;;;;;;5053462;28;20234;-67
2022/05/13 00:15:24;;;;;;;8.43;7.00;;;11.90;99.90;;;;;;5053124;28;20248;-67
2022/05/13 00:17:51;;;;;;;7.33;6.83;;;11.80;99.90;;;;;;5052970;28;20171;-66
2022/05/13 00:20:16;;;;;;;9.13;7.37;;;11.80;99.90;;;;;;5053497;28;20266;-67
2022/05/13 00:22:54;;;;;;;8.07;7.37;;;11.80;99.90;;;;;;5053247;28;20227;-67
2022/05/13 00:25:22;;;;;;;6.97;6.37;;;11.80;99.90;;;;;;5053030;28;20171;-68
2022/05/13 00:27:48;;;;;;;7.30;6.80;;;11.80;99.90;;;;;;5052957;28;20189;-66
2022/05/13 00:30:15;;;;;;;7.27;6.50;;;11.80;99.90;;;;;;5053377;28;20166;-67
2022/05/13 00:32:41;;;;;;;7.03;6.43;;;11.70;99.90;;;;;;5052812;28;20199;-66
2022/05/13 00:35:07;;;;;;;10.73;6.70;;;11.70;99.90;;;;;;5052880;28;20679;-67
2022/05/13 00:37:34;;;;;;;6.93;6.40;;;11.70;99.90;;;;;;5052693;28;20178;-67
2022/05/13 00:39:59;;;;;;;7.30;6.70;;;11.80;99.90;;;;;;5053234;28;20553;-67
2022/05/13 00:42:25;;;;;;;6.80;6.30;;;11.80;99.90;;;;;;5052686;28;20218;-67
2022/05/13 00:44:51;;;;;;;7.00;6.30;;;11.90;99.90;;;;;;5052728;28;20262;-67
2022/05/13 00:47:18;;;;;;;8.20;6.30;;;11.90;99.90;;;;;;5052593;28;20665;-66
2022/05/13 00:49:43;;;;;;;7.40;6.30;;;12.00;99.90;;;;;;5052609;28;20174;-67
2022/05/13 00:52:10;;;;;;;8.00;6.43;;;12.10;99.90;;;;;;5052446;28;20620;-66
2022/05/13 00:54:38;;;;;;;9.60;6.37;;;12.10;99.90;;;;;;5052422;28;20209;-68
2022/05/13 00:57:05;;;;;;;10.77;6.33;;;12.20;99.90;;;;;;5050906;28;20683;-67
2022/05/13 00:59:34;;;;;;;7.10;6.47;;;12.20;99.90;;;;;;5062305;28;20253;-67
2022/05/13 01:02:00;;;;;;;7.17;5.53;;;12.10;99.90;;;;;;5072434;28;20217;-67
2022/05/13 01:04:27;;;;;;;13.13;6.30;;;12.20;99.90;;;;;;5071120;28;20209;-65
2022/05/13 01:06:56;;;;;;;6.93;6.37;;;12.00;99.90;;;;;;5068069;28;20185;-66
2022/05/13 01:09:22;;;;;;;7.07;6.37;;;12.00;99.90;;;;;;5051628;28;20217;-66
2022/05/13 01:11:52;;;;;;;7.67;5.30;;;12.00;99.90;;;;;;5051318;28;20336;-67
2022/05/13 01:14:33;;;;;;;8.03;5.50;;;11.90;99.90;;;;;;5052264;28;20194;-67
2022/05/13 01:20:04;;;;;;;5.53;4.93;;;11.80;99.90;;;;;;5052575;28;20308;-66
2022/05/13 01:22:30;;;;;;;5.83;5.43;;;11.80;99.90;;;;;;5051998;28;20750;-66
2022/05/13 01:24:56;;;;;;;4.63;4.43;;;11.70;99.90;;;;;;5051884;28;20205;-66
2022/05/13 01:27:21;;;;;;;5.27;5.00;;;11.60;99.90;;;;;;5051781;28;20206;-67
2022/05/13 01:29:48;;;;;;;4.87;4.67;;;11.60;99.90;;;;;;5050401;28;20178;-67
2022/05/13 01:32:14;;;;;;;5.50;5.00;;;11.50;99.90;;;;;;5051719;28;20660;-66
2022/05/13 01:34:41;;;;;;;5.50;5.20;;;11.50;99.90;;;;;;5051411;28;20186;-66
2022/05/13 01:37:07;;;;;;;5.13;4.90;;;11.40;99.90;;;;;;5051573;28;20572;-67
2022/05/13 01:39:32;;;;;;;6.20;5.17;;;11.40;99.90;;;;;;5051505;28;20174;-67
2022/05/13 01:41:58;;;;;;;4.70;4.50;;;11.40;99.90;;;;;;5051239;28;20217;-66
2022/05/13 01:44:23;;;;;;;4.80;4.60;;;11.30;99.90;;;;;;5051657;28;20223;-67
2022/05/13 01:46:49;;;;;;;4.93;4.70;;;11.30;99.90;;;;;;5051274;28;20190;-67
2022/05/13 01:49:14;;;;;;;4.40;4.20;;;11.30;99.90;;;;;;5051979;28;20272;-66
2022/05/13 01:51:40;;;;;;;4.73;4.53;;;11.20;99.90;;;;;;5051333;28;20207;-66
2022/05/13 01:54:06;;;;;;;4.67;4.47;;;11.10;99.90;;;;;;5051618;28;20178;-67
2022/05/13 01:56:31;;;;;;;4.67;4.47;;;11.10;99.90;;;;;;5051069;28;20201;-67
2022/05/13 01:58:57;;;;;;;4.90;4.70;;;11.20;99.90;;;;;;5051314;28;20163;-67
2022/05/13 02:01:23;;;;;;;4.77;4.57;;;11.10;99.90;;;;;;5051213;28;20202;-67
2022/05/13 02:03:48;;;;;;;4.67;4.47;;;11.10;99.90;;;;;;5051250;28;20171;-68
2022/05/13 02:06:25;;;;;;;4.80;4.50;;;11.10;99.90;;;;;;5050472;28;20179;-67
2022/05/13 02:08:52;;;;;;;4.67;4.47;;;11.10;99.90;;;;;;5051280;28;20656;-68
2022/05/13 02:11:20;;;;;;;5.00;4.80;;;11.10;99.90;;;;;;5051345;28;20545;-67
2022/05/13 02:13:46;;;;;;;4.83;4.60;;;11.10;99.90;;;;;;5051270;28;20273;-67
2022/05/13 02:16:13;;;;;;;5.00;4.80;;;11.10;99.90;;;;;;5050706;28;20241;-67
2022/05/13 02:18:40;;;;;;;5.33;5.13;;;11.10;99.90;;;;;;5051422;28;20231;-67
2022/05/13 02:21:06;;;;;;;5.30;5.10;;;11.00;99.90;;;;;;5051104;28;20175;-67
2022/05/13 02:23:32;;;;;;;5.07;4.77;;;11.00;99.90;;;;;;5050971;28;20167;-67
2022/05/13 02:26:03;;;;;;;4.77;4.57;;;11.00;99.90;;;;;;5051129;28;20171;-67
2022/05/13 02:28:30;;;;;;;4.90;4.70;;;10.90;99.90;;;;;;5051263;28;20193;-67
2022/05/13 02:30:56;;;;;;;4.67;4.47;;;10.90;99.90;;;;;;5051057;28;20195;-67
2022/05/13 02:33:22;;;;;;;5.10;4.90;;;10.90;99.90;;;;;;5051064;28;20269;-67
2022/05/13 02:35:47;;;;;;;4.80;4.60;;;10.90;99.90;;;;;;5050538;28;20688;-66
2022/05/13 02:38:15;;;;;;;5.50;5.30;;;10.90;99.90;;;;;;5051028;28;20240;-68
2022/05/13 02:43:26;;;;;;;5.13;4.93;;;10.90;99.90;;;;;;5051307;28;20552;-67
2022/05/13 02:45:52;;;;;;;4.70;4.50;;;10.80;99.90;;;;;;5050992;28;20174;-67
2022/05/13 02:48:18;;;;;;;4.60;4.40;;;10.80;99.90;;;;;;5050815;28;20198;-67
2022/05/13 02:50:44;;;;;;;5.00;4.80;;;10.70;99.90;;;;;;5051054;28;20175;-67
2022/05/13 02:53:10;;;;;;;4.80;4.60;;;10.70;99.90;;;;;;5050826;28;20485;-67
2022/05/13 02:55:35;;;;;;;4.70;4.50;;;10.80;99.90;;;;;;5050325;28;20301;-67
2022/05/13 02:58:01;;;;;;;4.93;4.73;;;10.80;99.90;;;;;;5050761;28;20175;-66
2022/05/13 03:00:27;;;;;;;4.80;4.60;;;10.80;99.90;;;;;;5051171;28;20167;-67
2022/05/13 03:02:53;;;;;;;4.50;4.30;;;10.80;99.90;;;;;;5050695;28;20565;-67
2022/05/13 03:05:19;;;;;;;4.70;4.50;;;10.80;99.90;;;;;;5049956;28;20175;-65
2022/05/13 03:07:45;;;;;;;10.00;5.00;;;10.90;99.90;;;;;;5049269;28;20203;-66
2022/05/13 03:10:11;;;;;;;4.73;4.53;;;11.00;99.90;;;;;;5051032;28;20203;-66
2022/05/13 03:12:38;;;;;;;4.80;4.60;;;11.10;99.90;;;;;;5050515;28;20198;-66
2022/05/13 03:15:05;;;;;;;4.70;4.50;;;11.10;99.90;;;;;;5049432;28;20189;-67
2022/05/13 03:17:30;;;;;;;5.10;4.83;;;11.20;99.90;;;;;;5052634;28;20170;-64
2022/05/13 03:19:56;;;;;;;4.60;4.40;;;11.20;99.90;;;;;;5055460;28;20174;-67
2022/05/13 03:22:21;;;;;;;4.80;4.60;;;11.20;99.90;;;;;;5054463;28;20191;-68
2022/05/13 03:24:47;;;;;;;4.00;3.90;;;11.20;99.90;;;;;;5054217;28;20198;-67
2022/05/13 03:27:13;;;;;;;4.50;4.30;;;11.20;99.90;;;;;;5054291;28;20179;-66
2022/05/13 03:29:38;;;;;;;4.60;4.40;;;11.20;99.90;;;;;;5054527;28;20295;-67
2022/05/13 03:32:08;;;;;;;4.50;4.30;;;11.10;99.90;;;;;;5053407;28;20199;-66
2022/05/13 03:34:37;;;;;;;4.80;4.60;;;11.10;99.90;;;;;;5054117;28;20202;-67
2022/05/13 03:37:03;;;;;;;4.63;4.43;;;11.10;99.90;;;;;;5053747;28;20208;-66
2022/05/13 03:39:29;;;;;;;4.60;4.40;;;11.00;99.90;;;;;;5054144;28;20198;-67
2022/05/13 03:41:55;;;;;;;5.80;5.43;;;11.00;99.90;;;;;;5054270;28;20210;-66
2022/05/13 03:44:20;;;;;;;4.40;4.20;;;11.00;99.90;;;;;;5054277;28;20612;-67
2022/05/13 03:46:46;;;;;;;6.70;5.07;;;11.00;99.90;;;;;;5053345;28;20557;-67
2022/05/13 03:49:12;;;;;;;4.90;4.70;;;11.00;99.90;;;;;;5054497;28;20186;-67
2022/05/13 03:51:38;;;;;;;5.70;5.40;;;11.00;99.90;;;;;;5053479;28;20207;-66
2022/05/13 03:54:04;;;;;;;4.70;4.50;;;11.00;99.90;;;;;;5054032;28;20197;-67
2022/05/13 03:56:30;;;;;;;4.93;4.73;;;11.00;99.90;;;;;;5053415;28;20205;-66
2022/05/13 03:58:55;;;;;;;4.70;4.50;;;11.00;99.90;;;;;;5053906;28;20171;-67
2022/05/13 04:01:21;;;;;;;5.40;5.17;;;11.00;99.90;;;;;;5053551;28;20251;-66
2022/05/13 04:03:50;;;;;;;4.97;4.77;;;11.00;99.90;;;;;;5053097;28;20201;-67
2022/05/13 04:09:05;;;;;;;4.40;4.20;;;11.00;99.90;;;;;;5053923;28;20189;-66
2022/05/13 04:11:34;;;;;;;4.80;4.60;;;11.10;99.90;;;;;;5053504;28;20194;-66
2022/05/13 04:16:44;;;;;;;5.07;4.87;;;11.20;99.90;;;;;;5053452;28;20255;-66
2022/05/13 04:19:11;;;;;;;4.10;4.00;;;11.40;99.90;;;;;;5053592;28;20167;-67
2022/05/13 04:21:39;;;;;;;4.53;4.33;;;11.50;99.90;;;;;;5053302;28;20744;-67
2022/05/13 04:24:07;;;;;;;4.60;4.40;;;11.50;99.90;;;;;;5053250;28;20312;-65
2022/05/13 04:26:33;;;;;;;4.40;4.20;;;11.50;99.90;;;;;;5053043;28;20235;-64
2022/05/13 04:29:01;;;;;;;4.40;4.20;;;11.50;99.90;;;;;;5052909;28;20198;-66
2022/05/13 04:31:29;;;;;;;4.60;4.40;;;11.60;99.90;;;;;;5053247;28;20202;-66
2022/05/13 04:33:55;;;;;;;4.50;4.30;;;11.50;99.90;;;;;;5052962;28;20652;-65
2022/05/13 04:36:23;;;;;;;4.80;4.60;;;11.50;99.90;;;;;;5053057;28;20738;-65
2022/05/13 04:38:49;;;;;;;4.57;4.37;;;11.50;99.90;;;;;;5052951;28;20191;-65
2022/05/13 04:44:00;;;;;;;4.40;4.20;;;11.60;99.90;;;;;;5052964;28;20221;-65
2022/05/13 04:46:25;;;;;;;6.13;4.97;;;11.60;99.90;;;;;;5052704;28;20668;-66
2022/05/13 04:48:53;;;;;;;4.67;4.43;;;11.80;99.90;;;;;;5052586;28;20173;-66
2022/05/13 04:51:19;;;;;;;4.50;4.30;;;11.80;99.90;;;;;;5052913;28;20559;-65
2022/05/13 04:53:47;;;;;;;4.60;4.40;;;11.90;99.90;;;;;;5052549;28;20602;-66
2022/05/13 04:56:13;;;;;;;4.80;4.60;;;11.90;99.90;;;;;;5052314;28;20203;-67
2022/05/13 04:58:39;;;;;;;4.60;4.40;;;11.80;99.90;;;;;;5052520;28;20276;-65
2022/05/13 05:01:07;;;;;;;4.60;4.40;;;11.80;99.90;;;;;;5052880;28;20206;-67
2022/05/13 05:03:35;;;;;;;4.70;4.50;;;11.80;99.90;;;;;;5052150;28;20174;-66
2022/05/13 05:06:01;;;;;;;4.60;4.40;;;11.80;99.90;;;;;;5070915;28;20185;-65
2022/05/13 05:08:28;;;;;;;4.70;4.50;;;11.80;99.90;;;;;;5072836;28;20174;-65
2022/05/13 05:10:55;;;;;;;4.67;4.47;;;11.70;99.90;;;;;;5072544;28;20177;-65
2022/05/13 05:13:28;;;;;;;4.90;4.70;;;11.70;99.90;;;;;;5060663;28;20227;-66
2022/05/13 05:15:55;;;;;;;4.70;4.50;;;11.80;99.90;;;;;;5052130;28;20234;-67
2022/05/13 05:18:21;;;;;;;4.70;4.50;;;11.90;99.90;;;;;;5052504;28;20228;-67
2022/05/13 05:20:48;;;;;;;4.70;4.50;;;12.00;99.90;;;;;;5052378;28;20173;-65
2022/05/13 05:23:16;;;;;;;4.40;4.20;;;12.10;99.90;;;;;;5052024;28;20182;-66
2022/05/13 05:25:43;;;;;;;5.23;4.93;;;12.20;99.90;;;;;;5051719;28;20661;-67
2022/05/13 05:28:09;;;;;;;5.33;5.10;;;12.30;99.90;;;;;;5052030;28;20182;-64
2022/05/13 05:30:35;;;;;;;4.50;4.30;;;12.50;99.90;;;;;;5051986;28;20187;-65
2022/05/13 05:33:00;;;;;;;4.40;4.20;;;12.70;99.90;;;;;;5051812;28;20210;-65
2022/05/13 05:35:26;;;;;;;4.63;4.43;;;13.00;99.90;;;;;;5051581;28;20589;-65
2022/05/13 05:37:52;;;;;;;4.00;3.90;;;13.10;99.90;;;;;;5051531;28;20182;-62
2022/05/13 05:40:18;;;;;;;4.40;4.20;;;13.40;99.90;;;;;;5051126;28;20167;-65
2022/05/13 05:42:44;;;;;;;4.60;4.40;;;13.60;99.90;;;;;;5051474;28;20198;-64
2022/05/13 05:45:13;;;;;;;4.40;4.20;;;13.80;99.90;;;;;;5051594;28;20205;-65
2022/05/13 05:47:39;;;;;;;4.87;4.67;;;13.90;99.90;;;;;;5051699;28;20163;-65
2022/05/13 05:50:08;;;;;;;4.50;4.30;;;14.00;99.90;;;;;;5051652;28;20178;-63
2022/05/13 05:52:34;;;;;;;4.23;4.07;;;13.90;99.90;;;;;;5051194;28;20763;-64
2022/05/13 05:58:10;;;;;;;14.33;5.47;;;13.70;99.90;;;;;;5051300;28;20243;-63
2022/05/13 06:00:42;;;;;;;4.77;4.57;;;13.60;99.90;;;;;;5051282;28;20182;-64
2022/05/13 06:03:09;;;;;;;4.50;4.30;;;13.60;99.90;;;;;;5046829;28;20282;-64
2022/05/13 06:05:34;;;;;;;4.50;4.30;;;13.60;99.90;;;;;;5051232;28;20179;-64
2022/05/13 06:08:01;;;;;;;4.67;4.47;;;13.70;99.90;;;;;;5051209;28;20190;-65
2022/05/13 06:10:28;;;;;;;5.20;5.00;;;13.90;99.90;;;;;;5051482;28;20177;-66
2022/05/13 06:12:55;;;;;;;4.00;3.90;;;14.00;99.90;;;;;;5051090;28;20198;-66
2022/05/13 06:15:21;;;;;;;4.70;4.50;;;14.20;99.90;;;;;;5050037;28;20201;-65
2022/05/13 06:17:50;;;;;;;3.60;3.50;;;14.60;99.90;;;;;;5050828;28;20258;-65
2022/05/13 06:20:21;;;;;;;4.27;4.07;;;14.90;99.90;;;;;;5051440;28;20595;-66
2022/05/13 06:22:47;;;;;;;10.33;4.63;;;15.00;99.90;;;;;;5050867;28;20238;-64
2022/05/13 06:25:15;;;;;;;3.77;3.67;;;15.20;99.90;;;;;;5051153;28;20190;-66
2022/05/13 06:27:41;;;;;;;3.73;3.63;;;15.70;99.90;;;;;;5050873;28;20640;-65
2022/05/13 06:30:14;;;;;;;3.40;3.30;;;16.10;99.90;;;;;;5051268;28;20175;-63
2022/05/13 06:32:40;;;;;;;3.63;3.53;;;16.60;99.90;;;;;;5051002;28;20197;-64
2022/05/13 06:35:07;;;;;;;3.77;3.60;;;16.70;99.90;;;;;;5050927;28;20187;-66
2022/05/13 06:37:33;;;;;;;4.00;3.80;;;16.90;99.90;;;;;;5051233;28;20175;-66
2022/05/13 06:39:59;;;;;;;4.73;4.43;;;17.00;99.90;;;;;;5049408;28;20640;-66
2022/05/13 06:42:24;;;;;;;4.23;4.03;;;17.20;99.90;;;;;;5049657;28;20214;-66
2022/05/13 06:44:50;;;;;;;3.50;3.40;;;17.50;99.90;;;;;;5049011;28;20179;-66
2022/05/13 06:47:16;;;;;;;3.47;3.37;;;17.80;99.90;;;;;;5050940;28;20205;-65
2022/05/13 06:49:41;;;;;;;3.47;3.37;;;18.00;99.90;;;;;;5050591;28;20183;-65
2022/05/13 06:52:08;;;;;;;4.10;3.80;;;18.00;99.90;;;;;;5053683;28;20206;-65
2022/05/13 06:54:34;;;;;;;3.70;3.60;;;17.80;99.90;;;;;;5054606;28;20225;-64
2022/05/13 06:57:00;;;;;;;4.43;4.23;;;17.70;99.90;;;;;;5054573;28;20210;-65
2022/05/13 06:59:25;;;;;;;4.97;4.77;;;17.70;99.90;;;;;;5053713;28;20229;-65
2022/05/13 07:01:51;;;;;;;3.77;3.57;;;17.60;99.90;;;;;;5052735;28;20194;-65
2022/05/13 07:04:16;;;;;;;4.60;4.37;;;17.80;99.90;;;;;;5054209;28;20186;-65
2022/05/13 07:06:42;;;;;;;3.40;3.30;;;17.90;99.90;;;;;;5052748;28;20222;-65
2022/05/13 07:09:08;;;;;;;3.40;3.30;;;18.20;99.90;;;;;;5054788;28;20166;-64
2022/05/13 07:11:34;;;;;;;3.30;3.20;;;18.40;99.90;;;;;;5054219;28;20672;-64
2022/05/13 07:14:00;;;;;;;3.30;3.20;;;18.50;99.90;;;;;;5054586;28;20200;-64
2022/05/13 07:16:26;;;;;;;3.73;3.60;;;18.60;99.90;;;;;;5053758;28;20281;-65
2022/05/13 07:18:52;;;;;;;3.30;3.20;;;18.60;99.90;;;;;;5054613;28;20605;-65
2022/05/13 07:21:18;;;;;;;2.90;2.80;;;18.90;99.90;;;;;;5053805;28;20317;-66
2022/05/13 07:23:44;;;;;;;4.50;4.10;;;19.10;99.90;;;;;;5053867;28;20248;-66
2022/05/13 07:26:10;;;;;;;3.20;3.10;;;19.30;99.90;;;;;;5053776;28;20259;-66
2022/05/13 07:28:38;;;;;;;3.30;3.20;;;19.60;99.90;;;;;;5054246;28;20175;-66
2022/05/13 07:31:05;;;;;;;3.53;3.33;;;19.80;99.90;;;;;;5054171;28;20171;-66
2022/05/13 07:33:31;;;;;;;4.18;3.97;;;20.10;99.90;;;;;;5034189;28;20542;-66
2022/05/13 07:35:57;;;;;;;3.77;3.57;;;20.20;99.90;;;;;;5033674;28;20695;-65
2022/05/13 07:38:23;;;;;;;3.10;3.00;;;19.80;99.90;;;;;;5051467;28;20179;-65
2022/05/13 07:43:34;;;;;;;3.60;3.50;;;20.00;99.90;;;;;;5054249;28;20221;-65
2022/05/13 07:45:59;;;;;;;3.55;3.45;;;20.00;99.90;;;;;;5053702;28;20187;-64
2022/05/13 07:48:25;;;;;;;7.47;3.90;;;20.10;99.90;;;;;;5054118;28;20271;-64
2022/05/13 07:50:52;;;;;;;3.93;3.80;;;20.10;99.90;;;;;;5053530;28;20191;-64
2022/05/13 07:53:18;;;;;;;4.50;4.20;;;20.00;99.90;;;;;;5054242;28;20195;-65
2022/05/13 07:55:43;;;;;;;3.10;3.00;;;20.10;99.90;;;;;;5053007;28;20232;-68
2022/05/13 07:58:09;;;;;;;3.10;3.00;;;20.20;99.90;;;;;;5053965;28;20179;-65
2022/05/13 08:00:37;;;;;;;3.25;3.15;;;20.20;99.90;;;;;;5053538;28;20174;-64
2022/05/13 08:03:08;;;;;;;3.80;3.63;;;20.20;99.90;;;;;;5052940;28;20312;-67
2022/05/13 08:05:46;;;;;;;3.40;3.30;;;19.80;99.90;;;;;;5033264;28;20175;-66
2022/05/13 08:08:16;;;;;;;3.20;3.10;;;19.60;99.90;;;;;;5043949;28;20189;-68
2022/05/13 08:10:46;;;;;;;15.43;3.67;;;19.70;99.90;;;;;;5051989;28;20614;-66
2022/05/13 08:13:12;;;;;;;3.40;3.30;;;19.70;99.90;;;;;;5052829;28;20274;-67
2022/05/13 08:15:38;;;;;;;3.60;3.50;;;19.70;99.90;;;;;;5053057;28;20293;-66
2022/05/13 08:18:04;;;;;;;3.60;3.40;;;19.40;99.90;;;;;;5053356;28;20281;-67
2022/05/13 08:20:30;;;;;;;4.28;3.95;;;19.30;99.90;;;;;;5053697;28;20667;-66
2022/05/13 08:22:57;;;;;;;3.87;3.73;;;19.40;99.90;;;;;;5053436;28;20555;-67
2022/05/13 08:25:23;;;;;;;3.10;3.00;;;19.20;99.90;;;;;;5052863;28;20179;-68
2022/05/13 08:27:49;;;;;;;8.10;3.67;;;19.10;99.90;;;;;;5051381;28;20179;-66
2022/05/13 08:30:16;;;;;;;3.40;3.30;;;19.20;99.90;;;;;;5053244;28;20179;-66
2022/05/13 08:32:41;;;;;;;3.57;3.37;;;19.20;99.90;;;;;;5052556;28;20190;-66
2022/05/13 08:35:08;;;;;;;4.17;3.93;;;19.00;99.90;;;;;;5052744;28;20640;-65
2022/05/13 08:37:40;;;;;;;3.27;3.17;;;19.40;99.90;;;;;;5053186;28;20661;-67
2022/05/13 08:40:07;;;;;;;3.42;3.33;;;19.50;99.90;;;;;;5053075;28;20179;-67
2022/05/13 08:42:41;;;;;;;3.70;3.60;;;19.70;99.90;;;;;;5052279;28;20210;-67
2022/05/13 08:45:10;;;;;;;3.60;3.50;;;19.90;99.90;;;;;;5051004;28;20277;-66
2022/05/13 08:47:51;;;;;;;4.50;4.30;;;20.20;99.90;;;;;;5052405;28;20251;-65
2022/05/13 08:50:37;;;;;;;3.17;3.08;;;20.20;99.90;;;;;;5052778;28;20166;-66
2022/05/13 08:53:22;;;;;;;3.65;3.45;;;20.20;99.90;;;;;;5052222;28;20191;-67
2022/05/13 08:55:51;;;;;;;3.10;3.00;;;20.30;99.90;;;;;;5052145;28;20202;-66
2022/05/13 08:58:19;;;;;;;3.30;3.20;;;20.60;99.90;;;;;;5052429;28;20178;-67
2022/05/13 09:00:51;;;;;;;6.13;3.13;;;20.80;99.90;;;;;;5052096;28;20536;-67
2022/05/13 09:04:02;;;;;;;3.00;2.90;;;21.30;99.90;;;;;;5052586;28;20209;-66
2022/05/13 09:06:39;;;;;;;3.25;3.15;;;21.00;99.90;;;;;;5049049;28;20206;-65
2022/05/13 09:09:12;;;;;;;3.05;2.95;;;20.60;99.90;;;;;;5064415;28;20200;-66
2022/05/13 09:12:17;;;;;;;4.00;3.80;;;20.60;99.90;;;;;;5072321;28;20558;-68
2022/05/13 09:14:53;;;;;;;3.50;3.40;;;20.60;99.90;;;;;;4989143;28;20185;-67
2022/05/13 09:17:30;;;;;;;3.83;3.72;;;20.90;99.90;;;;;;5049475;28;20602;-67
2022/05/13 09:20:16;;;;;;;2.83;2.72;;;20.90;99.90;;;;;;5049694;28;20652;-68
2022/05/13 09:22:46;;;;;;;3.17;3.08;;;21.40;99.90;;;;;;5032032;28;20278;-68
2022/05/13 09:25:16;;;;;;;2.92;2.83;;;21.50;99.90;;;;;;5036592;28;20539;-66
2022/05/13 09:27:56;;;;;;;2.70;2.60;;;21.20;99.90;;;;;;5051813;28;20656;-68
2022/05/13 09:30:28;;;;;;;2.95;2.85;;;21.40;99.90;;;;;;5052054;28;20315;-66
2022/05/13 09:32:54;;;;;;;3.10;3.00;;;21.80;99.90;;;;;;5051902;28;20579;-65
2022/05/13 09:35:25;;;;;;;3.38;3.05;;;22.00;99.90;;;;;;5051449;28;20179;-67
2022/05/13 09:37:51;;;;;;;2.70;2.60;;;22.00;99.90;;;;;;5051839;28;20174;-66
2022/05/13 09:40:16;;;;;;;3.70;3.50;;;22.20;99.90;;;;;;5051552;28;20217;-68
2022/05/13 09:42:46;;;;;;;3.08;2.92;;;22.50;99.90;;;;;;5074551;22;20295;-64
2022/05/13 09:45:33;;;;;;;2.50;2.40;;;23.00;99.90;;;;;;5049850;28;20229;-65
2022/05/13 09:48:10;;;;;;;2.63;2.53;;;23.20;99.90;;;;;;5050570;28;20698;-65
2022/05/13 09:50:43;;;;;;;2.65;2.55;;;23.20;99.90;;;;;;5034807;28;20214;-66
2022/05/13 09:53:20;;;;;;;2.78;2.67;;;23.40;99.90;;;;;;5031502;28;20184;-66
2022/05/13 09:55:47;;;;;;;2.67;2.58;;;23.30;99.90;;;;;;5046739;28;20206;-65
2022/05/13 09:58:23;;;;;;;2.70;2.60;;;23.10;99.90;;;;;;5051389;28;20190;-66
2022/05/13 10:00:57;;;;;;;2.70;2.60;;;22.90;99.90;;;;;;5049884;28;20219;-65
2022/05/13 10:03:36;;;;;;;3.20;3.10;;;22.60;99.90;;;;;;5051189;28;20201;-66
2022/05/13 10:06:17;;;;;;;2.60;2.50;;;22.80;99.90;;;;;;5050837;28;20291;-66
2022/05/13 10:08:55;;;;;;;2.60;2.50;;;23.20;99.90;;;;;;5051264;28;20174;-67
2022/05/13 10:14:35;;;;;;;3.00;2.90;;;23.60;99.90;;;;;;5051072;28;20225;-65
2022/05/13 10:17:04;;;;;;;2.78;2.67;;;22.60;99.90;;;;;;5049583;28;20226;-66
2022/05/13 10:19:37;;;;;;;3.10;3.00;;;21.70;99.90;;;;;;5050474;28;20182;-68
2022/05/13 10:22:11;;;;;;;3.15;3.05;;;21.30;99.90;;;;;;5049778;28;20225;-66
2022/05/13 10:25:26;;;;;;;2.78;2.67;;;21.50;99.90;;;;;;5039364;28;20182;-66
2022/05/13 10:27:57;;;;;;;2.50;2.40;;;22.10;99.90;;;;;;5033269;28;20183;-66
2022/05/13 10:30:38;;;;;;;3.00;2.90;;;22.30;99.90;;;;;;5049631;28;20236;-65
2022/05/13 10:33:42;;;;;;;2.90;2.80;;;22.10;99.90;;;;;;5050358;28;20190;-66
2022/05/13 10:36:19;;;;;;;2.70;2.60;;;21.60;99.90;;;;;;5029618;28;20261;-65
2022/05/13 10:38:59;;;;;;;3.40;3.25;;;22.00;99.90;;;;;;5032263;28;20178;-67
2022/05/13 10:41:33;;;;;;;3.05;2.95;;;22.00;99.90;;;;;;5049469;28;20567;-67
2022/05/13 10:44:09;;;;;;;3.80;3.60;;;21.70;99.90;;;;;;5049291;28;20183;-66
2022/05/13 10:46:46;;;;;;;2.70;2.60;;;21.80;99.90;;;;;;5050671;28;20635;-66
2022/05/13 10:49:13;;;;;;;3.55;3.35;;;22.20;99.90;;;;;;5050573;28;20183;-66
2022/05/13 10:51:58;;;;;;;2.75;2.65;;;22.50;99.90;;;;;;5050834;28;20213;-67
2022/05/13 10:54:35;;;;;;;2.83;2.72;;;22.80;99.90;;;;;;5049469;28;20171;-66
2022/05/13 10:57:23;;;;;;;2.80;2.70;;;22.60;99.90;;;;;;5048993;28;20571;-66
2022/05/13 11:00:19;;;;;;;2.75;2.65;;;22.60;99.90;;;;;;5049283;28;20182;-67
2022/05/13 11:03:01;;;;;;;3.17;3.00;;;22.60;99.90;;;;;;5050699;28;20559;-66
2022/05/13 11:05:34;;;;;;;3.00;2.90;;;22.50;99.90;;;;;;5050429;28;20175;-65
2022/05/13 11:08:15;;;;;;;2.70;2.60;;;21.90;99.90;;;;;;5049830;28;20181;-66
2022/05/13 11:11:02;;;;;;;2.90;2.80;;;21.50;99.90;;;;;;5050533;28;20543;-65
2022/05/13 11:13:48;;;;;;;3.13;3.03;;;21.60;99.90;;;;;;5050605;28;20304;-68
2022/05/13 11:16:29;;;;;;;2.97;2.88;;;21.50;99.90;;;;;;5048844;28;20206;-67
2022/05/13 11:19:19;;;;;;;2.90;2.80;;;21.70;99.90;;;;;;5049081;28;20174;-66
2022/05/13 11:21:56;;;;;;;2.78;2.67;;;22.20;99.90;;;;;;5050200;28;20240;-67
2022/05/13 11:28:37;;;;;;;2.80;2.70;;;22.70;99.90;;;;;;5013864;28;20194;-67
2022/05/13 11:31:31;;;;;;;2.80;2.70;;;22.00;99.90;;;;;;5050249;28;20182;-69
2022/05/13 11:34:15;;;;;;;2.80;2.70;;;21.30;99.90;;;;;;5033828;28;20206;-65
2022/05/13 11:37:09;;;;;;;2.70;2.60;;;21.50;99.90;;;;;;5050036;28;20210;-66
2022/05/13 11:39:48;;;;;;;3.20;3.10;;;21.60;99.90;;;;;;5052096;28;20269;-66
2022/05/13 11:42:32;;;;;;;2.85;2.75;;;21.70;99.90;;;;;;5053900;28;20237;-67
2022/05/13 11:45:16;;;;;;;2.80;2.70;;;21.80;99.90;;;;;;5053291;28;20240;-68
2022/05/13 11:48:00;;;;;;;2.83;2.72;;;21.80;99.90;;;;;;5053599;28;20298;-66
2022/05/13 11:50:28;;;;;;;3.10;3.00;;;22.00;99.90;;;;;;5052750;28;20636;-67
2022/05/13 11:52:55;;;;;;;2.90;2.80;;;22.20;99.90;;;;;;5053654;28;20199;-65
2022/05/13 11:55:41;;;;;;;2.80;2.70;;;22.60;99.90;;;;;;5052372;28;20186;-66
2022/05/13 11:58:08;;;;;;;2.70;2.60;;;22.90;99.90;;;;;;5053405;28;20182;-67
2022/05/13 12:00:37;;;;;;;2.60;2.50;;;23.60;99.90;;;;;;5053722;28;20701;-66
2022/05/13 12:03:08;;;;;;;2.92;2.83;;;23.90;99.90;;;;;;5053428;28;20207;-65
2022/05/13 12:05:58;;;;;;;3.00;2.90;;;23.70;99.90;;;;;;5053394;28;20171;-66
2022/05/13 12:08:40;;;;;;;3.05;2.85;;;23.50;99.90;;;;;;5051797;28;20181;-64
2022/05/13 12:11:30;;;;;;;3.03;2.83;;;23.40;99.90;;;;;;5053400;28;20175;-67
2022/05/13 12:14:19;;;;;;;2.50;2.40;;;23.70;99.90;;;;;;5052151;28;20170;-66
2022/05/13 12:17:00;;;;;;;2.60;2.50;;;24.10;99.90;;;;;;5051594;28;20199;-68
2022/05/13 12:19:54;;;;;;;2.63;2.53;;;24.40;99.90;;;;;;5053604;28;20202;-66
2022/05/13 12:22:34;;;;;;;2.70;2.60;;;24.70;99.90;;;;;;5053012;28;20195;-65
2022/05/13 12:25:03;;;;;;;17.55;3.13;;;24.50;99.90;;;;;;5051643;28;20541;-66
2022/05/13 12:27:34;;;;;;;2.75;2.65;;;24.10;99.90;;;;;;5052826;28;20221;-66
2022/05/13 12:30:31;;;;;;;2.72;2.63;;;24.10;99.90;;;;;;5053130;28;20163;-66
2022/05/13 12:33:23;;;;;;;2.88;2.78;;;24.00;99.90;;;;;;5045970;28;20207;-65
2022/05/13 12:39:07;;;;;;;2.70;2.60;;;23.40;99.90;;;;;;5053260;28;20218;-65
2022/05/13 12:41:44;;;;;;;2.97;2.88;;;23.40;99.90;;;;;;5050576;28;20211;-65
2022/05/13 12:44:14;;;;;;;2.60;2.50;;;23.30;99.90;;;;;;5053264;28;20189;-66
2022/05/13 12:46:46;;;;;;;2.70;2.60;;;23.20;99.90;;;;;;5051082;28;20175;-66
2022/05/13 12:49:12;;;;;;;3.00;2.90;;;22.90;99.90;;;;;;5052970;28;20175;-67
2022/05/13 12:51:46;;;;;;;2.80;2.70;;;22.40;99.90;;;;;;5052384;28;20202;-65
2022/05/13 12:54:16;;;;;;;4.35;3.10;;;22.60;99.90;;;;;;5052907;28;20197;-67
2022/05/13 12:56:49;;;;;;;3.05;2.95;;;22.70;99.90;;;;;;5051508;28;20209;-66
2022/05/13 12:59:31;;;;;;;2.70;2.60;;;22.90;99.90;;;;;;5052730;28;20254;-66
2022/05/13 13:02:00;;;;;;;2.90;2.80;;;23.30;99.90;;;;;;5051173;28;20204;-67
2022/05/13 13:04:31;;;;;;;2.80;2.70;;;23.80;99.90;;;;;;5052314;28;20194;-69
2022/05/13 13:07:10;;;;;;;2.60;2.50;;;23.80;99.90;;;;;;5051402;28;20182;-68
2022/05/13 13:09:43;;;;;;;2.85;2.75;;;23.70;99.90;;;;;;5050969;28;20175;-68
2022/05/13 13:12:11;;;;;;;2.72;2.63;;;23.70;99.90;;;;;;5057550;28;20190;-69
2022/05/13 13:15:00;;;;;;;2.50;2.40;;;23.70;99.90;;;;;;5071664;28;20257;-67
2022/05/13 13:17:29;;;;;;;2.80;2.70;;;23.40;99.90;;;;;;5070895;28;20214;-65
2022/05/13 13:20:03;;;;;;;2.80;2.70;;;23.10;99.60;;;;;;5068925;28;20266;-66
2022/05/13 13:22:37;;;;;;;2.63;2.53;;;22.80;99.90;;;;;;5051046;28;20190;-66
2022/05/13 13:25:19;;;;;;;2.67;2.58;;;22.80;99.90;;;;;;5051910;28;20178;-69
2022/05/13 13:27:45;;;;;;;2.70;2.60;;;22.90;99.90;;;;;;5052165;28;20568;-69
2022/05/13 13:30:20;;;;;;;2.70;2.60;;;23.10;99.90;;;;;;5052116;28;20198;-68
2022/05/13 13:32:48;;;;;;;2.72;2.63;;;23.20;99.90;;;;;;5052001;28;20599;-68